createdAt,value
2018-04-16T00:00:17.264Z,27.27
2018-04-16T00:00:51.146Z,27.27
2018-04-16T00:01:25.004Z,32.35
2018-04-16T00:01:58.865Z,25.27
2018-04-16T00:02:32.755Z,26.37
2018-04-16T00:03:06.635Z,29.37
2018-04-16T00:03:40.652Z,28.85
2018-04-16T00:04:14.643Z,24.80
2018-04-16T00:04:48.492Z,27.60
2018-04-16T00:05:22.370Z,26.27
2018-04-16T00:05:56.233Z,28.98
2018-04-16T00:06:30.103Z,27.67
2018-04-16T00:07:03.970Z,28.48
2018-04-16T00:07:37.831Z,29.75
2018-04-16T00:08:11.718Z,28.92
2018-04-16T00:08:45.592Z,28.65
2018-04-16T00:09:19.466Z,28.05
2018-04-16T00:09:53.349Z,26.35
2018-04-16T00:10:27.291Z,28.25
2018-04-16T00:11:01.193Z,28.98
2018-04-16T00:11:35.056Z,29.10
2018-04-16T00:12:08.921Z,31.50
2018-04-16T00:12:42.788Z,25.33
2018-04-16T00:13:16.656Z,23.67
2018-04-16T00:13:50.527Z,27.25
2018-04-16T00:14:24.452Z,25.90
2018-04-16T00:14:58.315Z,28.50
2018-04-16T00:15:32.342Z,24.30
2018-04-16T00:16:06.236Z,29.05
2018-04-16T00:16:40.114Z,27.30
2018-04-16T00:17:13.989Z,26.50
2018-04-16T00:17:47.864Z,27.77
2018-04-16T00:18:21.737Z,27.05
2018-04-16T00:18:55.614Z,27.58
2018-04-16T00:19:29.501Z,27.92
2018-04-16T00:20:03.359Z,26.55
2018-04-16T00:20:37.225Z,27.62
2018-04-16T00:21:11.114Z,24.85
2018-04-16T00:21:44.990Z,26.45
2018-04-16T00:22:18.863Z,27.15
2018-04-16T00:22:52.732Z,28.73
2018-04-16T00:23:26.596Z,27.55
2018-04-16T00:24:00.472Z,28.87
2018-04-16T00:24:34.342Z,27.20
2018-04-16T00:25:08.218Z,29.63
2018-04-16T00:25:42.077Z,30.35
2018-04-16T00:26:16.002Z,25.62
2018-04-16T00:26:49.876Z,25.85
2018-04-16T00:27:23.854Z,32.17
2018-04-16T00:27:57.713Z,28.05
2018-04-16T00:28:31.587Z,27.95
2018-04-16T00:29:05.500Z,30.60
2018-04-16T00:29:39.367Z,24.30
2018-04-16T00:30:13.414Z,29.17
2018-04-16T00:30:47.273Z,26.50
2018-04-16T00:31:21.161Z,29.20
2018-04-16T00:32:00.937Z,27.90
2018-04-16T00:32:40.620Z,30.70
2018-04-16T00:33:20.279Z,28.08
2018-04-16T00:33:59.984Z,30.17
2018-04-16T00:34:39.676Z,29.67
2018-04-16T00:35:19.208Z,27.05
2018-04-16T00:35:58.755Z,27.20
2018-04-16T00:36:38.455Z,28.75
2018-04-16T00:37:17.970Z,26.33
2018-04-16T00:37:57.656Z,25.90
2018-04-16T00:38:37.198Z,30.62
2018-04-16T00:39:16.767Z,27.27
2018-04-16T00:39:56.499Z,26.12
2018-04-16T00:40:50.210Z,28.62
2018-04-16T00:41:29.868Z,30.65
2018-04-16T00:42:09.608Z,28.67
2018-04-16T00:42:49.284Z,30.75
2018-04-16T00:43:28.796Z,28.90
2018-04-16T00:44:08.714Z,28.52
2018-04-16T00:44:48.518Z,30.30
2018-04-16T00:45:28.099Z,30.05
2018-04-16T00:46:07.803Z,27.58
2018-04-16T00:46:47.333Z,33.85
2018-04-16T00:47:27.079Z,27.37
2018-04-16T00:48:06.703Z,29.25
2018-04-16T00:48:46.200Z,27.67
2018-04-16T00:49:25.698Z,28.25
2018-04-16T00:50:05.380Z,29.30
2018-04-16T00:50:45.062Z,28.17
2018-04-16T00:51:36.607Z,28.85
2018-04-16T00:52:16.121Z,29.45
2018-04-16T00:52:55.805Z,25.35
2018-04-16T00:53:41.318Z,27.92
2018-04-16T00:54:36.828Z,29.92
2018-04-16T00:55:16.332Z,28.27
2018-04-16T00:55:55.907Z,26.08
2018-04-16T00:56:35.435Z,30.25
2018-04-16T00:57:14.997Z,26.95
2018-04-16T00:57:54.620Z,29.50
2018-04-16T00:58:34.320Z,28.67
2018-04-16T00:59:13.816Z,29.15
2018-04-16T00:59:53.491Z,31.92
2018-04-16T01:00:33.121Z,26.37
2018-04-16T01:01:12.767Z,31.62
2018-04-16T01:02:01.528Z,28.98
2018-04-16T01:02:41.116Z,29.23
2018-04-16T01:03:20.700Z,33.55
2018-04-16T01:04:00.276Z,27.62
2018-04-16T01:04:39.939Z,35.95
2018-04-16T01:05:19.836Z,32.92
2018-04-16T01:05:59.569Z,32.50
2018-04-16T01:06:39.163Z,30.48
2018-04-16T01:07:18.686Z,27.50
2018-04-16T01:07:58.471Z,32.22
2018-04-16T01:08:37.986Z,26.60
2018-04-16T01:09:17.718Z,29.63
2018-04-16T01:09:57.378Z,29.48
2018-04-16T01:10:36.885Z,34.28
2018-04-16T01:11:16.412Z,33.83
2018-04-16T01:11:56.067Z,29.15
2018-04-16T01:12:36.391Z,30.88
2018-04-16T01:13:16.221Z,30.08
2018-04-16T01:13:56.049Z,31.02
2018-04-16T01:14:35.672Z,31.50
2018-04-16T01:15:15.180Z,31.35
2018-04-16T01:15:54.740Z,33.30
2018-04-16T01:16:34.268Z,30.95
2018-04-16T01:17:13.894Z,30.10
2018-04-16T01:17:53.695Z,28.58
2018-04-16T01:18:33.404Z,28.40
2018-04-16T01:19:13.029Z,34.38
2018-04-16T01:19:52.703Z,33.47
2018-04-16T01:20:32.341Z,27.20
2018-04-16T01:21:11.998Z,33.72
2018-04-16T01:21:51.520Z,31.42
2018-04-16T01:22:31.176Z,30.40
2018-04-16T01:23:10.750Z,28.55
2018-04-16T01:23:50.290Z,30.70
2018-04-16T01:24:29.793Z,32.33
2018-04-16T01:25:09.556Z,36.78
2018-04-16T01:25:49.192Z,29.37
2018-04-16T01:26:28.747Z,31.62
2018-04-16T01:27:08.471Z,32.80
2018-04-16T01:27:48.104Z,32.33
2018-04-16T01:28:27.732Z,30.00
2018-04-16T01:29:07.239Z,33.55
2018-04-16T01:29:46.865Z,31.75
2018-04-16T01:30:26.691Z,34.65
2018-04-16T01:31:06.391Z,33.67
2018-04-16T01:31:46.023Z,30.20
2018-04-16T01:32:25.546Z,29.33
2018-04-16T01:33:05.319Z,31.80
2018-04-16T01:33:44.955Z,28.38
2018-04-16T01:34:24.594Z,31.20
2018-04-16T01:35:04.240Z,33.25
2018-04-16T01:35:55.914Z,34.58
2018-04-16T01:36:35.467Z,34.47
2018-04-16T01:37:15.035Z,32.75
2018-04-16T01:37:54.668Z,29.60
2018-04-16T01:38:34.255Z,33.05
2018-04-16T01:39:13.887Z,34.40
2018-04-16T01:39:53.551Z,31.40
2018-04-16T01:40:33.204Z,30.08
2018-04-16T01:41:12.944Z,31.70
2018-04-16T01:41:52.636Z,30.65
2018-04-16T01:42:32.116Z,32.75
2018-04-16T01:43:11.793Z,31.40
2018-04-16T01:43:51.544Z,31.80
2018-04-16T01:44:31.167Z,31.20
2018-04-16T01:45:10.715Z,30.20
2018-04-16T01:45:50.327Z,31.42
2018-04-16T01:46:29.860Z,35.35
2018-04-16T01:47:09.517Z,28.12
2018-04-16T01:47:49.019Z,29.58
2018-04-16T01:48:28.532Z,30.48
2018-04-16T01:49:08.284Z,33.78
2018-04-16T01:49:47.908Z,28.95
2018-04-16T01:50:27.773Z,32.10
2018-04-16T01:51:07.513Z,29.40
2018-04-16T01:51:47.055Z,30.17
2018-04-16T01:52:26.559Z,32.83
2018-04-16T01:53:06.317Z,33.78
2018-04-16T01:53:46.137Z,29.98
2018-04-16T01:54:26.067Z,27.35
2018-04-16T01:55:05.746Z,32.35
2018-04-16T01:55:45.420Z,29.73
2018-04-16T01:56:25.144Z,32.83
2018-04-16T01:57:04.718Z,32.00
2018-04-16T01:57:44.526Z,28.80
2018-04-16T01:58:24.136Z,33.03
2018-04-16T01:59:03.731Z,32.05
2018-04-16T01:59:43.609Z,32.67
2018-04-16T02:00:23.241Z,32.70
2018-04-16T02:01:11.985Z,30.58
2018-04-16T02:01:51.479Z,29.73
2018-04-16T02:02:31.460Z,33.85
2018-04-16T02:03:11.131Z,32.30
2018-04-16T02:03:50.761Z,31.98
2018-04-16T02:04:30.392Z,34.40
2018-04-16T02:05:10.002Z,30.62
2018-04-16T02:05:49.800Z,32.15
2018-04-16T02:06:29.421Z,31.62
2018-04-16T02:07:09.181Z,29.83
2018-04-16T02:07:48.916Z,31.58
2018-04-16T02:08:28.695Z,32.05
2018-04-16T02:09:18.217Z,30.37
2018-04-16T02:09:57.915Z,28.52
2018-04-16T02:10:37.558Z,32.53
2018-04-16T02:11:17.206Z,32.13
2018-04-16T02:11:56.866Z,33.03
2018-04-16T02:12:36.439Z,33.25
2018-04-16T02:13:16.103Z,29.30
2018-04-16T02:13:55.749Z,30.90
2018-04-16T02:14:35.394Z,35.00
2018-04-16T02:15:14.974Z,30.42
2018-04-16T02:15:54.612Z,31.95
2018-04-16T02:16:34.358Z,35.47
2018-04-16T02:17:14.017Z,35.72
2018-04-16T02:17:53.591Z,36.40
2018-04-16T02:18:42.340Z,32.97
2018-04-16T02:19:21.867Z,32.55
2018-04-16T02:20:01.478Z,31.98
2018-04-16T02:20:41.015Z,38.55
2018-04-16T02:21:20.653Z,31.33
2018-04-16T02:22:00.381Z,30.10
2018-04-16T02:22:40.085Z,34.20
2018-04-16T02:23:19.793Z,30.10
2018-04-16T02:23:59.293Z,33.03
2018-04-16T02:24:38.959Z,35.63
2018-04-16T02:25:18.600Z,30.75
2018-04-16T02:25:58.306Z,32.03
2018-04-16T02:26:37.929Z,31.58
2018-04-16T02:27:17.581Z,28.40
2018-04-16T02:27:57.356Z,32.53
2018-04-16T02:28:36.976Z,27.42
2018-04-16T02:29:16.538Z,29.02
2018-04-16T02:29:56.516Z,34.85
2018-04-16T02:30:36.256Z,30.55
2018-04-16T02:31:26.257Z,31.05
2018-04-16T02:32:05.772Z,33.95
2018-04-16T02:32:45.388Z,29.58
2018-04-16T02:33:25.064Z,34.00
2018-04-16T02:34:04.572Z,32.08
2018-04-16T02:34:44.299Z,29.12
2018-04-16T02:35:23.955Z,31.23
2018-04-16T02:36:03.978Z,30.33
2018-04-16T02:36:43.550Z,30.85
2018-04-16T02:37:23.054Z,33.15
2018-04-16T02:38:02.710Z,33.00
2018-04-16T02:38:42.252Z,29.05
2018-04-16T02:39:21.800Z,33.47
2018-04-16T02:40:01.334Z,31.60
2018-04-16T02:40:41.005Z,29.65
2018-04-16T02:41:20.660Z,33.65
2018-04-16T02:42:00.221Z,30.95
2018-04-16T02:42:39.735Z,34.67
2018-04-16T02:43:19.243Z,31.98
2018-04-16T02:43:58.760Z,31.75
2018-04-16T02:44:38.457Z,34.28
2018-04-16T02:45:18.176Z,27.95
2018-04-16T02:46:06.921Z,30.40
2018-04-16T02:46:46.459Z,30.58
2018-04-16T02:47:26.151Z,28.45
2018-04-16T02:48:05.661Z,32.63
2018-04-16T02:48:45.341Z,31.98
2018-04-16T02:49:24.935Z,31.33
2018-04-16T02:50:04.554Z,35.65
2018-04-16T02:50:58.276Z,31.02
2018-04-16T02:51:37.808Z,32.08
2018-04-16T02:52:17.370Z,31.23
2018-04-16T02:52:57.099Z,31.33
2018-04-16T02:53:51.657Z,30.75
2018-04-16T02:54:31.171Z,31.17
2018-04-16T02:55:10.700Z,31.87
2018-04-16T02:55:50.359Z,27.02
2018-04-16T02:56:30.046Z,33.20
2018-04-16T02:57:09.728Z,31.92
2018-04-16T02:57:49.362Z,32.10
2018-04-16T02:58:29.108Z,31.40
2018-04-16T02:59:08.679Z,32.13
2018-04-16T02:59:48.186Z,32.53
2018-04-16T03:00:27.727Z,30.65
2018-04-16T03:01:07.375Z,29.17
2018-04-16T03:01:46.919Z,26.73
2018-04-16T03:02:26.574Z,31.65
2018-04-16T03:03:06.149Z,29.85
2018-04-16T03:03:45.861Z,29.87
2018-04-16T03:04:25.478Z,30.17
2018-04-16T03:05:04.968Z,33.38
2018-04-16T03:05:44.523Z,31.50
2018-04-16T03:06:24.091Z,34.47
2018-04-16T03:07:03.766Z,33.05
2018-04-16T03:07:43.342Z,29.92
2018-04-16T03:08:22.923Z,34.78
2018-04-16T03:09:02.442Z,30.40
2018-04-16T03:09:41.956Z,30.80
2018-04-16T03:10:21.646Z,29.80
2018-04-16T03:11:01.497Z,28.40
2018-04-16T03:11:41.139Z,31.92
2018-04-16T03:12:20.747Z,33.83
2018-04-16T03:13:00.445Z,34.92
2018-04-16T03:13:40.303Z,33.85
2018-04-16T03:14:19.896Z,29.95
2018-04-16T03:14:59.421Z,30.48
2018-04-16T03:15:38.988Z,30.90
2018-04-16T03:16:18.696Z,34.55
2018-04-16T03:16:58.196Z,31.37
2018-04-16T03:17:37.894Z,33.33
2018-04-16T03:18:17.544Z,31.90
2018-04-16T03:18:57.171Z,31.55
2018-04-16T03:19:37.056Z,32.70
2018-04-16T03:20:16.639Z,31.65
2018-04-16T03:20:56.211Z,34.58
2018-04-16T03:21:35.826Z,29.83
2018-04-16T03:22:26.508Z,28.77
2018-04-16T03:23:06.300Z,32.83
2018-04-16T03:23:46.063Z,31.75
2018-04-16T03:24:25.684Z,34.53
2018-04-16T03:25:05.352Z,32.72
2018-04-16T03:25:45.005Z,34.15
2018-04-16T03:26:24.663Z,35.78
2018-04-16T03:27:04.288Z,32.33
2018-04-16T03:27:43.918Z,32.63
2018-04-16T03:28:23.649Z,33.47
2018-04-16T03:29:03.339Z,31.67
2018-04-16T03:29:42.969Z,35.15
2018-04-16T03:30:22.589Z,33.20
2018-04-16T03:31:02.289Z,32.58
2018-04-16T03:31:41.906Z,35.70
2018-04-16T03:32:21.555Z,30.73
2018-04-16T03:33:01.361Z,32.30
2018-04-16T03:33:40.920Z,33.28
2018-04-16T03:34:20.548Z,31.10
2018-04-16T03:35:00.204Z,33.50
2018-04-16T03:35:39.827Z,31.77
2018-04-16T03:36:19.658Z,34.30
2018-04-16T03:36:59.185Z,34.10
2018-04-16T03:37:38.934Z,29.75
2018-04-16T03:38:18.502Z,34.92
2018-04-16T03:38:58.334Z,34.95
2018-04-16T03:39:38.070Z,30.67
2018-04-16T03:40:17.636Z,33.78
2018-04-16T03:40:57.299Z,30.58
2018-04-16T03:41:36.855Z,38.20
2018-04-16T03:42:16.423Z,35.60
2018-04-16T03:42:55.911Z,35.45
2018-04-16T03:43:35.678Z,33.95
2018-04-16T03:44:15.543Z,34.15
2018-04-16T03:44:55.209Z,35.95
2018-04-16T03:45:34.959Z,34.25
2018-04-16T03:46:14.640Z,37.60
2018-04-16T03:46:54.183Z,37.72
2018-04-16T03:47:33.722Z,35.00
2018-04-16T03:48:13.310Z,41.05
2018-04-16T03:48:52.868Z,35.55
2018-04-16T03:49:32.510Z,34.25
2018-04-16T03:50:12.323Z,31.50
2018-04-16T03:50:51.837Z,33.17
2018-04-16T03:51:26.493Z,34.17
2018-04-16T03:52:08.938Z,32.50
2018-04-16T03:52:48.605Z,39.17
2018-04-16T03:53:41.324Z,32.75
2018-04-16T03:54:15.192Z,35.45
2018-04-16T03:54:50.598Z,31.52
2018-04-16T03:55:24.463Z,32.67
2018-04-16T03:55:58.323Z,38.85
2018-04-16T03:56:32.182Z,33.88
2018-04-16T03:57:06.076Z,35.67
2018-04-16T03:57:39.959Z,34.08
2018-04-16T03:58:14.169Z,34.33
2018-04-16T03:58:48.028Z,37.55
2018-04-16T03:59:21.891Z,32.97
2018-04-16T03:59:55.764Z,31.40
2018-04-16T04:00:29.647Z,34.85
2018-04-16T04:01:03.512Z,38.70
2018-04-16T04:01:37.367Z,33.83
2018-04-16T04:02:11.219Z,36.00
2018-04-16T04:02:45.107Z,36.03
2018-04-16T04:03:19.004Z,36.88
2018-04-16T04:03:52.867Z,33.08
2018-04-16T04:04:26.774Z,34.53
2018-04-16T04:05:00.659Z,35.50
2018-04-16T04:05:34.560Z,32.40
2018-04-16T04:06:08.444Z,36.58
2018-04-16T04:06:42.376Z,36.95
2018-04-16T04:07:16.231Z,35.53
2018-04-16T04:07:50.079Z,35.15
2018-04-16T04:08:23.949Z,36.33
2018-04-16T04:08:58.068Z,37.97
2018-04-16T04:09:31.936Z,35.47
2018-04-16T04:10:05.813Z,32.13
2018-04-16T04:10:39.676Z,35.60
2018-04-16T04:11:13.531Z,35.70
2018-04-16T04:11:47.647Z,35.00
2018-04-16T04:12:21.511Z,33.05
2018-04-16T04:12:55.382Z,37.45
2018-04-16T04:13:29.251Z,37.35
2018-04-16T04:14:03.108Z,30.33
2018-04-16T04:14:36.970Z,35.78
2018-04-16T04:15:10.856Z,34.25
2018-04-16T04:15:44.718Z,34.75
2018-04-16T04:16:18.590Z,37.38
2018-04-16T04:16:52.457Z,35.53
2018-04-16T04:17:26.336Z,34.75
2018-04-16T04:18:00.189Z,34.10
2018-04-16T04:18:34.056Z,38.42
2018-04-16T04:19:07.916Z,33.63
2018-04-16T04:19:41.777Z,32.15
2018-04-16T04:20:15.654Z,39.13
2018-04-16T04:20:49.531Z,35.72
2018-04-16T04:21:23.556Z,32.47
2018-04-16T04:21:57.425Z,37.53
2018-04-16T04:22:37.115Z,34.25
2018-04-16T04:23:16.905Z,34.95
2018-04-16T04:23:56.721Z,35.28
2018-04-16T04:24:36.436Z,36.67
2018-04-16T04:25:16.227Z,39.22
2018-04-16T04:25:56.012Z,32.22
2018-04-16T04:26:35.674Z,38.53
2018-04-16T04:27:15.339Z,44.28
2018-04-16T04:27:54.871Z,37.45
2018-04-16T04:28:34.524Z,40.22
2018-04-16T04:29:14.219Z,39.28
2018-04-16T04:29:53.911Z,39.60
2018-04-16T04:30:33.511Z,40.55
2018-04-16T04:31:07.368Z,36.13
2018-04-16T04:31:41.350Z,36.10
2018-04-16T04:32:15.212Z,37.67
2018-04-16T04:32:49.098Z,40.50
2018-04-16T04:33:23.149Z,37.40
2018-04-16T04:33:57.011Z,39.83
2018-04-16T04:34:30.881Z,36.80
2018-04-16T04:35:04.743Z,41.85
2018-04-16T04:35:38.745Z,35.22
2018-04-16T04:36:12.595Z,38.55
2018-04-16T04:36:46.472Z,36.42
2018-04-16T04:37:20.350Z,34.80
2018-04-16T04:37:54.209Z,38.42
2018-04-16T04:38:28.077Z,38.80
2018-04-16T04:39:01.961Z,42.47
2018-04-16T04:39:35.814Z,36.97
2018-04-16T04:40:09.662Z,38.72
2018-04-16T04:40:43.515Z,38.42
2018-04-16T04:41:17.392Z,36.83
2018-04-16T04:41:51.243Z,41.50
2018-04-16T04:42:25.257Z,39.28
2018-04-16T04:42:59.258Z,37.33
2018-04-16T04:43:33.135Z,38.83
2018-04-16T04:44:06.991Z,39.75
2018-04-16T04:44:40.871Z,37.78
2018-04-16T04:45:14.792Z,36.70
2018-04-16T04:45:48.624Z,42.22
2018-04-16T04:46:22.645Z,41.33
2018-04-16T04:46:56.512Z,39.55
2018-04-16T04:47:30.358Z,36.65
2018-04-16T04:48:04.232Z,39.58
2018-04-16T04:48:38.100Z,37.25
2018-04-16T04:49:11.975Z,40.25
2018-04-16T04:49:45.840Z,38.50
2018-04-16T04:50:19.717Z,43.92
2018-04-16T04:50:53.600Z,38.88
2018-04-16T04:51:27.481Z,37.65
2018-04-16T04:52:01.351Z,39.83
2018-04-16T04:52:35.373Z,37.30
2018-04-16T04:53:09.235Z,34.53
2018-04-16T04:53:43.161Z,39.70
2018-04-16T04:54:17.375Z,35.33
2018-04-16T04:54:51.395Z,40.75
2018-04-16T04:55:25.261Z,37.10
2018-04-16T04:55:59.128Z,40.92
2018-04-16T04:56:32.995Z,38.63
2018-04-16T04:57:06.875Z,40.53
2018-04-16T04:57:40.748Z,40.00
2018-04-16T04:58:14.637Z,39.53
2018-04-16T04:58:48.555Z,39.45
2018-04-16T04:59:22.425Z,40.08
2018-04-16T04:59:56.319Z,38.90
2018-04-16T05:00:30.864Z,40.35
2018-04-16T05:01:04.776Z,42.00
2018-04-16T05:01:38.970Z,41.33
2018-04-16T05:02:12.863Z,38.20
2018-04-16T05:02:46.744Z,40.25
2018-04-16T05:03:20.611Z,42.45
2018-04-16T05:03:54.468Z,44.65
2018-04-16T05:04:28.403Z,41.70
2018-04-16T05:05:02.280Z,44.35
2018-04-16T05:05:36.139Z,49.20
2018-04-16T05:06:10.043Z,36.28
2018-04-16T05:06:43.925Z,41.47
2018-04-16T05:07:17.982Z,46.33
2018-04-16T05:07:51.840Z,42.20
2018-04-16T05:08:25.696Z,37.78
2018-04-16T05:08:59.562Z,44.08
2018-04-16T05:09:33.482Z,40.00
2018-04-16T05:10:07.461Z,42.50
2018-04-16T05:10:41.330Z,40.47
2018-04-16T05:11:15.207Z,36.40
2018-04-16T05:11:49.072Z,39.45
2018-04-16T05:12:22.944Z,39.97
2018-04-16T05:12:56.807Z,45.33
2018-04-16T05:13:30.668Z,40.60
2018-04-16T05:14:04.582Z,42.08
2018-04-16T05:14:38.448Z,37.13
2018-04-16T05:15:12.345Z,47.97
2018-04-16T05:15:46.205Z,42.50
2018-04-16T05:16:20.129Z,40.53
2018-04-16T05:16:53.996Z,40.08
2018-04-16T05:17:27.875Z,40.60
2018-04-16T05:18:01.730Z,41.47
2018-04-16T05:18:35.601Z,42.60
2018-04-16T05:19:09.475Z,41.90
2018-04-16T05:19:43.523Z,41.45
2018-04-16T05:20:17.686Z,42.03
2018-04-16T05:20:51.551Z,39.70
2018-04-16T05:21:25.499Z,43.25
2018-04-16T05:21:59.369Z,58.50
2018-04-16T05:22:33.461Z,39.38
2018-04-16T05:23:07.513Z,44.28
2018-04-16T05:23:41.479Z,41.35
2018-04-16T05:24:15.369Z,44.35
2018-04-16T05:24:49.343Z,40.12
2018-04-16T05:25:23.214Z,41.80
2018-04-16T05:25:57.084Z,42.05
2018-04-16T05:26:30.961Z,41.50
2018-04-16T05:27:04.967Z,41.13
2018-04-16T05:27:38.833Z,40.85
2018-04-16T05:28:12.965Z,41.70
2018-04-16T05:28:46.916Z,42.30
2018-04-16T05:29:20.812Z,44.92
2018-04-16T05:29:54.666Z,40.60
2018-04-16T05:30:28.619Z,41.85
2018-04-16T05:31:02.501Z,43.00
2018-04-16T05:31:36.388Z,40.38
2018-04-16T05:32:10.298Z,40.80
2018-04-16T05:32:44.186Z,44.20
2018-04-16T05:33:18.131Z,44.42
2018-04-16T05:33:52.088Z,44.72
2018-04-16T05:34:25.954Z,38.80
2018-04-16T05:34:59.823Z,40.45
2018-04-16T05:35:33.776Z,39.08
2018-04-16T05:36:07.787Z,38.42
2018-04-16T05:36:41.668Z,40.80
2018-04-16T05:37:15.558Z,41.90
2018-04-16T05:37:49.414Z,44.03
2018-04-16T05:38:23.977Z,39.20
2018-04-16T05:38:57.993Z,41.70
2018-04-16T05:39:32.143Z,41.17
2018-04-16T05:40:06.920Z,45.55
2018-04-16T05:40:41.799Z,42.60
2018-04-16T05:41:15.680Z,40.30
2018-04-16T05:41:49.549Z,41.80
2018-04-16T05:42:23.459Z,40.03
2018-04-16T05:42:57.335Z,38.85
2018-04-16T05:43:31.194Z,38.85
2018-04-16T05:44:05.177Z,40.55
2018-04-16T05:44:39.090Z,36.40
2018-04-16T05:45:12.995Z,37.17
2018-04-16T05:45:46.862Z,37.70
2018-04-16T05:46:20.777Z,37.33
2018-04-16T05:46:55.565Z,39.20
2018-04-16T05:47:29.455Z,37.78
2018-04-16T05:48:03.365Z,40.92
2018-04-16T05:48:37.222Z,36.17
2018-04-16T05:49:11.103Z,40.28
2018-04-16T05:49:44.955Z,40.30
2018-04-16T05:50:18.846Z,38.28
2018-04-16T05:50:52.729Z,40.20
2018-04-16T05:51:26.610Z,41.75
2018-04-16T05:52:00.525Z,40.35
2018-04-16T05:52:34.400Z,41.33
2018-04-16T05:53:09.467Z,39.83
2018-04-16T05:53:43.320Z,36.03
2018-04-16T05:54:17.187Z,39.58
2018-04-16T05:54:51.189Z,39.72
2018-04-16T05:55:25.432Z,34.65
2018-04-16T05:55:59.511Z,37.33
2018-04-16T05:56:33.382Z,40.38
2018-04-16T05:57:07.360Z,39.78
2018-04-16T05:57:41.420Z,40.63
2018-04-16T05:58:15.417Z,37.78
2018-04-16T05:58:50.155Z,37.47
2018-04-16T05:59:24.337Z,40.58
2018-04-16T05:59:58.194Z,34.92
2018-04-16T06:00:32.085Z,38.55
2018-04-16T06:01:05.950Z,47.20
2018-04-16T06:01:40.121Z,45.55
2018-04-16T06:02:14.220Z,43.50
2018-04-16T06:02:48.119Z,39.10
2018-04-16T06:03:22.229Z,39.78
2018-04-16T06:03:56.091Z,38.00
2018-04-16T06:04:31.261Z,41.78
2018-04-16T06:05:05.249Z,39.67
2018-04-16T06:05:39.130Z,39.05
2018-04-16T06:06:13.044Z,40.12
2018-04-16T06:06:46.925Z,39.88
2018-04-16T06:07:20.933Z,37.40
2018-04-16T06:07:55.092Z,38.38
2018-04-16T06:08:28.987Z,40.95
2018-04-16T06:09:02.849Z,40.88
2018-04-16T06:09:36.717Z,38.85
2018-04-16T06:10:10.580Z,45.20
2018-04-16T06:10:44.440Z,38.00
2018-04-16T06:11:18.594Z,40.22
2018-04-16T06:11:52.473Z,40.92
2018-04-16T06:12:26.350Z,42.33
2018-04-16T06:13:00.215Z,45.40
2018-04-16T06:13:34.363Z,40.28
2018-04-16T06:14:08.375Z,43.13
2018-04-16T06:14:42.232Z,41.30
2018-04-16T06:15:16.093Z,45.22
2018-04-16T06:15:49.981Z,45.03
2018-04-16T06:16:23.835Z,41.15
2018-04-16T06:16:57.682Z,41.97
2018-04-16T06:17:31.851Z,38.53
2018-04-16T06:18:05.848Z,39.63
2018-04-16T06:18:39.725Z,45.22
2018-04-16T06:19:13.589Z,45.53
2018-04-16T06:19:47.642Z,41.37
2018-04-16T06:20:21.639Z,42.17
2018-04-16T06:20:55.487Z,42.90
2018-04-16T06:21:29.356Z,44.38
2018-04-16T06:22:03.220Z,40.67
2018-04-16T06:22:37.116Z,37.45
2018-04-16T06:23:11.056Z,40.45
2018-04-16T06:23:44.948Z,46.30
2018-04-16T06:24:18.815Z,36.67
2018-04-16T06:24:52.680Z,35.28
2018-04-16T06:25:26.546Z,41.92
2018-04-16T06:26:00.401Z,38.65
2018-04-16T06:26:34.273Z,44.40
2018-04-16T06:27:08.135Z,39.67
2018-04-16T06:27:42.012Z,41.65
2018-04-16T06:28:15.872Z,38.88
2018-04-16T06:28:49.736Z,40.12
2018-04-16T06:29:23.612Z,36.92
2018-04-16T06:29:57.472Z,44.63
2018-04-16T06:30:32.279Z,39.20
2018-04-16T06:31:06.131Z,38.95
2018-04-16T06:31:39.992Z,37.53
2018-04-16T06:32:13.852Z,42.22
2018-04-16T06:32:47.727Z,43.55
2018-04-16T06:33:21.607Z,45.38
2018-04-16T06:33:55.473Z,41.50
2018-04-16T06:34:29.352Z,40.20
2018-04-16T06:35:03.341Z,37.45
2018-04-16T06:35:37.228Z,40.83
2018-04-16T06:36:11.071Z,39.30
2018-04-16T06:36:44.933Z,39.40
2018-04-16T06:37:18.798Z,43.45
2018-04-16T06:37:52.676Z,44.25
2018-04-16T06:38:26.706Z,36.72
2018-04-16T06:39:00.597Z,40.45
2018-04-16T06:39:34.716Z,38.45
2018-04-16T06:40:08.591Z,37.72
2018-04-16T06:40:42.452Z,38.00
2018-04-16T06:41:16.329Z,41.78
2018-04-16T06:41:50.194Z,40.28
2018-04-16T06:42:24.078Z,41.70
2018-04-16T06:42:57.941Z,39.60
2018-04-16T06:43:31.804Z,44.70
2018-04-16T06:44:05.664Z,42.90
2018-04-16T06:44:39.747Z,42.47
2018-04-16T06:45:13.636Z,38.35
2018-04-16T06:45:47.521Z,35.58
2018-04-16T06:46:21.388Z,42.53
2018-04-16T06:46:55.241Z,34.17
2018-04-16T06:47:29.232Z,36.20
2018-04-16T06:48:03.122Z,39.20
2018-04-16T06:48:36.986Z,39.15
2018-04-16T06:49:10.854Z,38.55
2018-04-16T06:49:44.727Z,37.55
2018-04-16T06:50:18.588Z,41.10
2018-04-16T06:50:52.484Z,37.35
2018-04-16T06:51:26.357Z,35.85
2018-04-16T06:52:00.228Z,39.80
2018-04-16T06:52:34.422Z,36.85
2018-04-16T06:53:08.349Z,38.80
2018-04-16T06:53:42.184Z,39.97
2018-04-16T06:54:16.124Z,38.05
2018-04-16T06:54:49.998Z,36.78
2018-04-16T06:55:23.905Z,37.63
2018-04-16T06:55:57.788Z,41.15
2018-04-16T06:56:31.743Z,39.78
2018-04-16T06:57:05.607Z,37.83
2018-04-16T06:57:39.481Z,42.65
2018-04-16T06:58:13.650Z,38.30
2018-04-16T06:58:47.519Z,40.85
2018-04-16T06:59:21.385Z,40.75
2018-04-16T06:59:55.272Z,41.17
2018-04-16T07:00:29.153Z,42.33
2018-04-16T07:01:03.169Z,42.40
2018-04-16T07:01:37.058Z,38.38
2018-04-16T07:02:11.015Z,39.47
2018-04-16T07:02:44.883Z,42.47
2018-04-16T07:03:18.806Z,43.50
2018-04-16T07:03:52.688Z,39.78
2018-04-16T07:04:26.566Z,44.67
2018-04-16T07:05:00.596Z,46.08
2018-04-16T07:05:34.460Z,42.58
2018-04-16T07:06:08.337Z,41.60
2018-04-16T07:06:42.206Z,37.22
2018-04-16T07:07:16.089Z,40.88
2018-04-16T07:07:49.977Z,42.20
2018-04-16T07:08:23.865Z,46.20
2018-04-16T07:08:57.762Z,44.35
2018-04-16T07:09:31.632Z,40.75
2018-04-16T07:10:05.568Z,38.95
2018-04-16T07:10:39.420Z,48.50
2018-04-16T07:11:13.283Z,43.70
2018-04-16T07:11:47.163Z,38.03
2018-04-16T07:12:21.090Z,44.80
2018-04-16T07:12:54.964Z,43.28
2018-04-16T07:13:28.866Z,41.00
2018-04-16T07:14:02.827Z,46.17
2018-04-16T07:14:36.822Z,37.30
2018-04-16T07:15:10.717Z,39.15
2018-04-16T07:15:44.745Z,44.35
2018-04-16T07:16:18.601Z,43.50
2018-04-16T07:16:52.602Z,42.30
2018-04-16T07:17:26.509Z,42.10
2018-04-16T07:18:00.437Z,40.60
2018-04-16T07:18:34.335Z,39.75
2018-04-16T07:19:08.485Z,35.53
2018-04-16T07:19:42.355Z,40.88
2018-04-16T07:20:16.498Z,41.03
2018-04-16T07:20:50.387Z,43.20
2018-04-16T07:21:24.262Z,43.53
2018-04-16T07:21:58.188Z,41.80
2018-04-16T07:22:32.147Z,44.30
2018-04-16T07:23:06.026Z,38.80
2018-04-16T07:23:39.906Z,38.30
2018-04-16T07:24:13.810Z,39.20
2018-04-16T07:24:47.950Z,39.10
2018-04-16T07:25:21.817Z,45.90
2018-04-16T07:25:55.845Z,36.60
2018-04-16T07:26:29.851Z,41.58
2018-04-16T07:27:03.722Z,41.58
2018-04-16T07:27:37.735Z,38.53
2018-04-16T07:28:11.633Z,38.75
2018-04-16T07:28:45.552Z,43.28
2018-04-16T07:29:19.520Z,37.17
2018-04-16T07:29:53.397Z,41.05
2018-04-16T07:30:27.268Z,41.30
2018-04-16T07:31:01.163Z,39.63
2018-04-16T07:31:35.358Z,44.78
2018-04-16T07:32:09.235Z,38.60
2018-04-16T07:32:43.198Z,42.33
2018-04-16T07:33:17.069Z,37.03
2018-04-16T07:33:50.998Z,43.63
2018-04-16T07:34:24.860Z,44.05
2018-04-16T07:34:58.840Z,43.55
2018-04-16T07:35:32.709Z,38.08
2018-04-16T07:36:06.586Z,43.47
2018-04-16T07:36:40.487Z,44.15
2018-04-16T07:37:14.372Z,47.42
2018-04-16T07:37:48.227Z,45.65
2018-04-16T07:38:22.100Z,46.83
2018-04-16T07:38:56.158Z,46.80
2018-04-16T07:39:30.097Z,45.88
2018-04-16T07:40:04.209Z,44.42
2018-04-16T07:40:38.147Z,44.60
2018-04-16T07:41:12.111Z,42.05
2018-04-16T07:41:46.102Z,45.28
2018-04-16T07:42:20.053Z,40.85
2018-04-16T07:42:53.916Z,43.50
2018-04-16T07:43:27.915Z,43.33
2018-04-16T07:44:01.784Z,43.08
2018-04-16T07:44:35.641Z,46.40
2018-04-16T07:45:09.572Z,46.00
2018-04-16T07:45:43.437Z,47.50
2018-04-16T07:46:18.545Z,41.85
2018-04-16T07:46:52.487Z,45.42
2018-04-16T07:47:28.277Z,43.47
2018-04-16T07:48:02.276Z,45.65
2018-04-16T07:48:36.568Z,47.42
2018-04-16T07:49:10.558Z,42.40
2018-04-16T07:49:47.337Z,45.15